createdAt,value
2018-07-06T00:00:57.319Z,20.10
2018-07-06T00:01:57.382Z,20.07
2018-07-06T00:02:57.443Z,20.12
2018-07-06T00:03:57.509Z,20.00
2018-07-06T00:04:57.565Z,19.87
2018-07-06T00:05:57.627Z,19.70
2018-07-06T00:06:57.693Z,19.70
2018-07-06T00:07:57.750Z,19.68
2018-07-06T00:08:57.812Z,19.70
2018-07-06T00:09:57.873Z,19.61
2018-07-06T00:10:57.967Z,19.61
2018-07-06T00:11:57.998Z,19.52
2018-07-06T00:12:58.060Z,19.40
2018-07-06T00:13:58.122Z,19.42
2018-07-06T00:14:58.181Z,19.31
2018-07-06T00:15:58.241Z,19.35
2018-07-06T00:16:58.305Z,19.30
2018-07-06T00:17:58.365Z,19.24
2018-07-06T00:18:58.426Z,19.20
2018-07-06T00:19:58.487Z,19.30
2018-07-06T00:20:58.548Z,19.27
2018-07-06T00:21:58.612Z,19.42
2018-07-06T00:22:58.673Z,19.34
2018-07-06T00:23:58.732Z,19.34
2018-07-06T00:24:58.795Z,19.38
2018-07-06T00:25:58.855Z,19.28
2018-07-06T00:26:58.919Z,19.28
2018-07-06T00:27:58.977Z,19.30
2018-07-06T00:28:59.040Z,19.28
2018-07-06T00:29:59.101Z,19.28
2018-07-06T00:30:59.162Z,19.27
2018-07-06T00:31:59.225Z,19.16
2018-07-06T00:32:59.287Z,19.32
2018-07-06T00:33:59.345Z,19.32
2018-07-06T00:34:59.408Z,19.40
2018-07-06T00:35:59.469Z,19.24
2018-07-06T00:36:59.528Z,19.27
2018-07-06T00:37:59.591Z,19.09
2018-07-06T00:38:59.653Z,19.02
2018-07-06T00:39:59.712Z,18.91
2018-07-06T00:40:59.774Z,18.84
2018-07-06T00:41:59.839Z,18.78
2018-07-06T00:42:59.896Z,18.84
2018-07-06T00:43:59.963Z,18.89
2018-07-06T00:45:00.021Z,18.93
2018-07-06T00:46:00.079Z,18.97
2018-07-06T00:47:00.140Z,18.99
2018-07-06T00:48:00.200Z,19.05
2018-07-06T00:49:00.263Z,18.90
2018-07-06T00:50:00.324Z,18.86
2018-07-06T00:51:00.388Z,18.83
2018-07-06T00:52:00.753Z,18.84
2018-07-06T00:53:00.507Z,18.89
2018-07-06T00:54:00.567Z,18.94
2018-07-06T00:55:00.642Z,18.78
2018-07-06T00:56:00.689Z,18.86
2018-07-06T00:57:00.752Z,18.94
2018-07-06T00:58:00.811Z,18.89
2018-07-06T00:59:00.872Z,19.01
2018-07-06T01:00:00.935Z,18.82
2018-07-06T01:01:00.995Z,18.83
2018-07-06T01:02:01.055Z,18.89
2018-07-06T01:03:01.117Z,18.86
2018-07-06T01:04:01.179Z,18.79
2018-07-06T01:05:01.242Z,18.75
2018-07-06T01:06:01.299Z,18.75
2018-07-06T01:07:01.360Z,18.75
2018-07-06T01:08:01.419Z,18.62
2018-07-06T01:09:01.482Z,18.50
2018-07-06T01:10:01.607Z,18.41
2018-07-06T01:11:01.604Z,18.56
2018-07-06T01:12:01.665Z,18.59
2018-07-06T01:13:01.728Z,18.57
2018-07-06T01:14:01.787Z,18.41
2018-07-06T01:15:01.852Z,18.38
2018-07-06T01:16:01.908Z,18.32
2018-07-06T01:17:01.974Z,18.29
2018-07-06T01:18:02.034Z,18.29
2018-07-06T01:19:02.093Z,18.32
2018-07-06T01:20:02.153Z,18.28
2018-07-06T01:21:02.213Z,18.16
2018-07-06T01:22:02.272Z,18.13
2018-07-06T01:23:02.334Z,18.16
2018-07-06T01:24:02.394Z,18.14
2018-07-06T01:25:02.454Z,18.04
2018-07-06T01:26:02.516Z,17.98
2018-07-06T01:27:02.576Z,17.83
2018-07-06T01:28:02.637Z,17.83
2018-07-06T01:29:02.698Z,17.86
2018-07-06T01:30:02.758Z,17.91
2018-07-06T01:31:02.819Z,17.91
2018-07-06T01:32:02.879Z,17.95
2018-07-06T01:33:02.940Z,17.91
2018-07-06T01:34:03.002Z,17.79
2018-07-06T01:35:03.063Z,17.76
2018-07-06T01:36:03.122Z,17.91
2018-07-06T01:37:03.183Z,17.91
2018-07-06T01:38:03.246Z,17.86
2018-07-06T01:39:03.305Z,17.89
2018-07-06T01:40:03.364Z,17.84
2018-07-06T01:41:03.425Z,17.77
2018-07-06T01:42:03.487Z,17.66
2018-07-06T01:43:03.547Z,17.68
2018-07-06T01:44:03.607Z,17.62
2018-07-06T01:45:03.670Z,17.57
2018-07-06T01:46:03.729Z,17.60
2018-07-06T01:47:03.790Z,17.55
2018-07-06T01:48:03.851Z,17.63
2018-07-06T01:49:04.162Z,17.68
2018-07-06T01:50:03.971Z,17.60
2018-07-06T01:51:04.032Z,17.49
2018-07-06T01:52:04.091Z,17.55
2018-07-06T01:53:04.153Z,17.60
2018-07-06T01:54:04.215Z,17.57
2018-07-06T01:55:04.274Z,17.65
2018-07-06T01:56:04.335Z,17.63
2018-07-06T01:57:04.395Z,17.53
2018-07-06T01:58:04.455Z,17.57
2018-07-06T02:00:04.577Z,17.40
2018-07-06T02:01:04.637Z,17.51
2018-07-06T02:02:04.697Z,17.57
2018-07-06T02:03:04.762Z,17.51
2018-07-06T02:04:04.819Z,17.46
2018-07-06T02:05:04.878Z,17.45
2018-07-06T02:06:04.942Z,17.38
2018-07-06T02:07:05.000Z,17.33
2018-07-06T02:08:05.059Z,17.28
2018-07-06T02:09:05.119Z,17.38
2018-07-06T02:10:05.181Z,17.39
2018-07-06T02:11:05.241Z,17.40
2018-07-06T02:12:05.301Z,17.32
2018-07-06T02:13:05.362Z,17.14
2018-07-06T02:14:05.422Z,17.14
2018-07-06T02:15:05.483Z,17.17
2018-07-06T02:16:05.542Z,17.17
2018-07-06T02:17:05.603Z,17.00
2018-07-06T02:18:05.666Z,17.06
2018-07-06T02:19:05.725Z,17.10
2018-07-06T02:20:05.784Z,17.12
2018-07-06T02:21:05.844Z,17.15
2018-07-06T02:22:05.905Z,17.35
2018-07-06T02:23:05.966Z,17.39
2018-07-06T02:24:06.024Z,17.45
2018-07-06T02:25:06.085Z,17.24
2018-07-06T02:26:06.145Z,16.91
2018-07-06T02:27:06.205Z,16.80
2018-07-06T02:28:06.264Z,16.91
2018-07-06T02:29:06.325Z,17.00
2018-07-06T02:30:06.386Z,16.92
2018-07-06T02:31:06.447Z,16.99
2018-07-06T02:32:06.506Z,17.06
2018-07-06T02:33:06.566Z,17.06
2018-07-06T02:34:06.627Z,17.07
2018-07-06T02:35:06.686Z,17.17
2018-07-06T02:36:06.747Z,17.05
2018-07-06T02:37:06.809Z,16.92
2018-07-06T02:38:06.868Z,16.98
2018-07-06T02:39:06.928Z,17.06
2018-07-06T02:40:06.987Z,17.05
2018-07-06T02:41:07.051Z,17.06
2018-07-06T02:42:07.109Z,17.09
2018-07-06T02:43:07.172Z,17.06
2018-07-06T02:44:07.229Z,17.14
2018-07-06T02:45:07.290Z,17.12
2018-07-06T02:46:07.352Z,17.12
2018-07-06T02:47:07.408Z,16.99
2018-07-06T02:48:07.468Z,16.98
2018-07-06T02:49:07.528Z,16.99
2018-07-06T02:50:07.590Z,16.85
2018-07-06T02:51:07.666Z,16.80
2018-07-06T02:52:07.709Z,16.80
2018-07-06T02:53:07.769Z,16.80
2018-07-06T02:54:07.829Z,16.88
2018-07-06T02:55:07.912Z,16.98
2018-07-06T02:56:07.980Z,16.78
2018-07-06T02:57:08.009Z,16.66
2018-07-06T02:58:08.069Z,16.69
2018-07-06T02:59:08.132Z,16.72
2018-07-06T03:00:08.189Z,16.80
2018-07-06T03:01:08.256Z,16.96
2018-07-06T03:02:08.311Z,16.84
2018-07-06T03:03:08.371Z,16.52
2018-07-06T03:04:08.433Z,16.48
2018-07-06T03:05:08.490Z,16.45
2018-07-06T03:06:08.601Z,16.42
2018-07-06T03:07:08.612Z,16.45
2018-07-06T03:08:08.669Z,16.42
2018-07-06T03:09:08.730Z,16.45
2018-07-06T03:10:08.790Z,16.48
2018-07-06T03:11:08.852Z,16.55
2018-07-06T03:12:08.911Z,16.50
2018-07-06T03:13:08.971Z,16.48
2018-07-06T03:14:09.031Z,16.36
2018-07-06T03:15:09.091Z,16.33
2018-07-06T03:16:09.151Z,16.36
2018-07-06T03:17:09.215Z,16.34
2018-07-06T03:18:09.271Z,16.30
2018-07-06T03:19:09.331Z,16.32
2018-07-06T03:20:09.392Z,16.37
2018-07-06T03:21:09.452Z,16.42
2018-07-06T03:22:09.512Z,16.51
2018-07-06T03:23:09.572Z,16.48
2018-07-06T03:24:09.631Z,16.36
2018-07-06T03:25:09.691Z,16.52
2018-07-06T03:26:09.752Z,16.63
2018-07-06T03:27:09.811Z,16.62
2018-07-06T03:28:09.913Z,16.48
2018-07-06T03:29:09.931Z,16.34
2018-07-06T03:30:09.998Z,16.48
2018-07-06T03:31:10.053Z,16.34
2018-07-06T03:32:10.264Z,16.40
2018-07-06T03:33:10.171Z,16.37
2018-07-06T03:34:10.233Z,16.33
2018-07-06T03:35:10.292Z,16.25
2018-07-06T03:36:10.350Z,16.29
2018-07-06T03:37:10.413Z,16.17
2018-07-06T03:38:10.471Z,16.26
2018-07-06T03:39:10.531Z,16.22
2018-07-06T03:40:10.597Z,16.16
2018-07-06T03:41:10.651Z,16.04
2018-07-06T03:42:10.710Z,16.04
2018-07-06T03:43:10.773Z,16.14
2018-07-06T03:44:10.830Z,16.25
2018-07-06T03:45:10.890Z,16.29
2018-07-06T03:46:10.951Z,16.32
2018-07-06T03:47:11.011Z,16.26
2018-07-06T03:48:11.126Z,16.23
2018-07-06T03:49:11.131Z,16.34
2018-07-06T03:50:11.191Z,16.42
2018-07-06T03:51:11.251Z,16.42
2018-07-06T03:52:11.310Z,16.52
2018-07-06T03:53:11.620Z,16.62
2018-07-06T03:54:11.430Z,16.51
2018-07-06T03:55:11.491Z,16.23
2018-07-06T03:56:11.550Z,16.34
2018-07-06T03:57:11.609Z,16.22
2018-07-06T03:58:11.709Z,16.16
2018-07-06T03:59:11.729Z,16.26
2018-07-06T04:00:11.789Z,16.32
2018-07-06T04:01:11.885Z,16.29
2018-07-06T04:02:11.909Z,16.25
2018-07-06T04:03:11.969Z,16.22
2018-07-06T04:04:12.029Z,16.16
2018-07-06T04:05:12.089Z,16.14
2018-07-06T04:06:12.149Z,16.17
2018-07-06T04:07:12.208Z,16.18
2018-07-06T04:08:12.267Z,16.23
2018-07-06T04:09:12.384Z,16.18
2018-07-06T04:10:12.389Z,16.27
2018-07-06T04:11:12.448Z,16.36
2018-07-06T04:12:12.507Z,16.48
2018-07-06T04:13:12.720Z,16.47
2018-07-06T04:14:12.629Z,16.47
2018-07-06T04:15:12.688Z,16.57
2018-07-06T04:16:12.748Z,16.59
2018-07-06T04:17:12.808Z,16.41
2018-07-06T04:18:12.870Z,16.37
2018-07-06T04:19:12.928Z,16.37
2018-07-06T04:20:12.991Z,16.34
2018-07-06T04:21:13.047Z,16.48
2018-07-06T04:22:13.107Z,16.48
2018-07-06T04:23:13.167Z,16.57
2018-07-06T04:24:13.227Z,16.57
2018-07-06T04:25:13.287Z,16.57
2018-07-06T04:26:13.347Z,16.66
2018-07-06T04:27:13.408Z,16.51
2018-07-06T04:28:13.467Z,16.44
2018-07-06T04:29:13.529Z,16.44
2018-07-06T04:30:13.588Z,16.42
2018-07-06T04:31:13.648Z,16.40
2018-07-06T04:32:13.708Z,16.40
2018-07-06T04:33:13.768Z,16.32
2018-07-06T04:34:13.827Z,16.37
2018-07-06T04:35:13.889Z,16.66
2018-07-06T04:36:13.947Z,16.67
2018-07-06T04:37:14.007Z,16.55
2018-07-06T04:38:14.067Z,16.44
2018-07-06T04:39:14.128Z,16.45
2018-07-06T04:40:14.187Z,16.42
2018-07-06T04:41:14.250Z,16.47
2018-07-06T04:42:14.309Z,16.30
2018-07-06T04:43:14.368Z,16.32
2018-07-06T04:44:14.474Z,16.23
2018-07-06T04:45:14.488Z,16.26
2018-07-06T04:46:14.548Z,16.34
2018-07-06T04:47:14.610Z,16.32
2018-07-06T04:48:14.668Z,16.48
2018-07-06T04:49:14.728Z,16.52
2018-07-06T04:50:14.792Z,16.81
2018-07-06T04:51:14.849Z,16.80
2018-07-06T04:52:14.910Z,16.59
2018-07-06T04:53:14.968Z,16.48
2018-07-06T04:54:15.180Z,16.52
2018-07-06T04:55:15.089Z,16.48
2018-07-06T04:56:15.148Z,16.54
2018-07-06T04:57:15.209Z,16.57
2018-07-06T04:58:15.269Z,16.69
2018-07-06T04:59:15.348Z,16.84
2018-07-06T05:00:15.391Z,16.90
2018-07-06T05:01:15.449Z,16.99
2018-07-06T05:02:15.510Z,16.99
2018-07-06T05:03:15.571Z,17.10
2018-07-06T05:04:15.630Z,17.07
2018-07-06T05:05:15.691Z,17.10
2018-07-06T05:06:15.752Z,16.95
2018-07-06T05:07:15.812Z,17.02
2018-07-06T05:08:15.872Z,17.00
2018-07-06T05:09:15.932Z,17.00
2018-07-06T05:10:15.992Z,17.03
2018-07-06T05:11:16.053Z,17.02
2018-07-06T05:12:16.113Z,17.05
2018-07-06T05:13:16.173Z,17.15
2018-07-06T05:14:16.234Z,17.30
2018-07-06T05:15:16.294Z,17.24
2018-07-06T05:16:16.353Z,17.33
2018-07-06T05:17:16.415Z,17.32
2018-07-06T05:18:16.475Z,17.43
2018-07-06T05:19:16.536Z,17.38
2018-07-06T05:20:16.596Z,17.47
2018-07-06T05:21:16.656Z,17.36
2018-07-06T05:22:16.718Z,17.32
2018-07-06T05:23:16.778Z,17.49
2018-07-06T05:24:16.838Z,17.30
2018-07-06T05:25:16.898Z,17.32
2018-07-06T05:26:16.961Z,17.33
2018-07-06T05:27:17.020Z,17.27
2018-07-06T05:28:17.080Z,17.32
2018-07-06T05:29:17.141Z,17.33
2018-07-06T05:30:17.203Z,17.25
2018-07-06T05:31:17.264Z,17.27
2018-07-06T05:32:17.324Z,17.35
2018-07-06T05:33:17.385Z,17.33
2018-07-06T05:34:17.445Z,17.32
2018-07-06T05:35:17.506Z,17.42
2018-07-06T05:36:17.566Z,17.46
2018-07-06T05:37:17.627Z,17.51
2018-07-06T05:38:17.688Z,17.68
2018-07-06T05:39:17.749Z,17.62
2018-07-06T05:40:17.808Z,17.65
2018-07-06T05:41:17.873Z,17.66
2018-07-06T05:42:17.932Z,17.79
2018-07-06T05:43:17.992Z,17.76
2018-07-06T05:44:18.053Z,17.83
2018-07-06T05:45:18.114Z,17.80
2018-07-06T05:46:18.193Z,17.89
2018-07-06T05:47:18.236Z,17.94
2018-07-06T05:48:18.297Z,17.96
2018-07-06T05:49:18.357Z,18.07
2018-07-06T05:50:18.418Z,18.07
2018-07-06T05:51:18.479Z,18.16
2018-07-06T05:52:18.539Z,18.28
2018-07-06T05:53:18.602Z,18.25
2018-07-06T05:54:18.663Z,18.21
2018-07-06T05:55:18.729Z,18.32
2018-07-06T05:56:18.784Z,18.36
2018-07-06T05:57:18.845Z,18.29
2018-07-06T05:58:18.907Z,18.42
2018-07-06T05:59:19.021Z,18.42
2018-07-06T06:00:19.029Z,18.60
2018-07-06T06:01:19.091Z,18.74
2018-07-06T06:02:19.152Z,18.78
2018-07-06T06:03:19.213Z,18.83
2018-07-06T06:04:19.275Z,18.83
2018-07-06T06:05:19.337Z,18.86
2018-07-06T06:06:19.400Z,18.82
2018-07-06T06:07:19.459Z,18.82
2018-07-06T06:08:19.520Z,18.78
2018-07-06T06:09:19.583Z,18.76
2018-07-06T06:10:19.645Z,18.84
2018-07-06T06:11:19.707Z,18.93
2018-07-06T06:12:19.793Z,18.97
2018-07-06T06:13:19.830Z,19.09
2018-07-06T06:14:19.893Z,19.12
2018-07-06T06:15:19.953Z,19.23
2018-07-06T06:16:20.016Z,19.23
2018-07-06T06:17:20.077Z,19.17
2018-07-06T06:18:20.139Z,19.21
2018-07-06T06:19:20.202Z,19.32
2018-07-06T06:20:20.265Z,19.23
2018-07-06T06:21:20.325Z,19.31
2018-07-06T06:22:20.387Z,19.31
2018-07-06T06:23:20.450Z,19.35
2018-07-06T06:24:20.511Z,19.40
2018-07-06T06:25:20.573Z,19.46
2018-07-06T06:26:20.637Z,19.55
2018-07-06T06:27:20.699Z,19.58
2018-07-06T06:28:20.760Z,19.67
2018-07-06T06:29:20.822Z,19.65
2018-07-06T06:30:20.884Z,19.68
2018-07-06T06:31:21.199Z,19.61
2018-07-06T06:32:21.009Z,19.82
2018-07-06T06:33:21.131Z,19.80
2018-07-06T06:34:21.134Z,19.72
2018-07-06T06:35:21.197Z,19.92
2018-07-06T06:36:21.259Z,19.87
2018-07-06T06:37:21.321Z,19.83
2018-07-06T06:38:21.385Z,19.90
2018-07-06T06:39:21.458Z,20.02
2018-07-06T06:40:21.510Z,20.08
2018-07-06T06:41:21.572Z,19.94
2018-07-06T06:42:21.635Z,20.00
2018-07-06T06:43:21.698Z,20.07
2018-07-06T06:44:21.759Z,20.13
2018-07-06T06:45:21.822Z,20.16
2018-07-06T06:46:21.885Z,20.23
2018-07-06T06:47:21.949Z,20.33
2018-07-06T06:48:22.010Z,20.35
2018-07-06T06:49:22.072Z,20.40
2018-07-06T06:50:22.135Z,20.58
2018-07-06T06:51:22.198Z,20.60
2018-07-06T06:52:22.261Z,20.63
2018-07-06T06:53:22.322Z,20.64
2018-07-06T06:54:22.384Z,20.50
2018-07-06T06:55:22.448Z,20.51
2018-07-06T06:56:22.510Z,20.58
2018-07-06T06:57:22.573Z,20.57
2018-07-06T06:58:22.635Z,20.48
2018-07-06T06:59:22.698Z,20.50
2018-07-06T07:00:27.531Z,20.44
2018-07-06T07:01:22.823Z,20.54
2018-07-06T07:02:22.886Z,20.56
2018-07-06T07:03:22.950Z,20.44
2018-07-06T07:04:23.010Z,20.66
2018-07-06T07:05:23.079Z,20.61
2018-07-06T07:06:23.136Z,20.60
2018-07-06T07:07:23.227Z,20.66
2018-07-06T07:08:23.261Z,20.79
2018-07-06T07:09:23.323Z,20.83
2018-07-06T07:10:23.391Z,20.79
2018-07-06T07:11:23.449Z,20.88
2018-07-06T07:12:23.511Z,20.88
2018-07-06T07:13:23.573Z,20.94
2018-07-06T07:14:23.635Z,20.94
2018-07-06T07:15:23.699Z,21.05
2018-07-06T07:16:23.760Z,21.06
2018-07-06T07:17:23.824Z,20.93
2018-07-06T07:18:23.886Z,21.03
2018-07-06T07:19:23.948Z,21.03
2018-07-06T07:20:24.010Z,21.08
2018-07-06T07:21:24.074Z,21.11
2018-07-06T07:22:24.136Z,21.21
2018-07-06T07:23:24.199Z,21.27
2018-07-06T07:24:24.262Z,21.34
2018-07-06T07:25:24.325Z,21.22
2018-07-06T07:26:24.387Z,21.33
2018-07-06T07:27:24.450Z,21.45
2018-07-06T07:28:24.512Z,21.43
2018-07-06T07:29:24.575Z,21.46
2018-07-06T07:30:24.640Z,21.52
2018-07-06T07:31:24.702Z,21.51
2018-07-06T07:32:24.763Z,21.40
2018-07-06T07:33:24.831Z,21.48
2018-07-06T07:34:24.894Z,21.46
2018-07-06T07:35:24.954Z,21.63
2018-07-06T07:36:25.016Z,21.55
2018-07-06T07:37:25.081Z,21.53
2018-07-06T07:38:25.142Z,21.73
2018-07-06T07:39:25.206Z,21.71
2018-07-06T07:40:25.270Z,21.74
2018-07-06T07:41:25.333Z,21.83
2018-07-06T07:42:25.394Z,21.89
2018-07-06T07:43:26.074Z,21.83
2018-07-06T07:44:25.519Z,21.79
2018-07-06T07:45:25.582Z,21.81
2018-07-06T07:46:25.683Z,21.86
2018-07-06T07:47:25.710Z,21.96
2018-07-06T07:48:26.156Z,21.94
2018-07-06T07:49:25.836Z,22.15
2018-07-06T07:50:25.898Z,22.15
2018-07-06T07:51:25.962Z,22.31
2018-07-06T07:52:26.088Z,22.39
2018-07-06T07:53:26.089Z,22.31
2018-07-06T07:54:26.215Z,22.35
2018-07-06T07:55:26.216Z,22.46
2018-07-06T07:56:26.280Z,22.14
2018-07-06T07:57:26.342Z,22.33
2018-07-06T07:58:26.406Z,22.27
2018-07-06T07:59:26.469Z,22.27
2018-07-06T08:00:26.571Z,22.31
2018-07-06T08:01:26.612Z,22.38
2018-07-06T08:02:26.660Z,22.44
2018-07-06T08:03:26.724Z,22.63
2018-07-06T08:04:26.789Z,22.67
2018-07-06T08:05:26.851Z,22.70
2018-07-06T08:06:26.916Z,22.82
2018-07-06T08:07:26.981Z,22.78
2018-07-06T08:08:27.044Z,22.74
2018-07-06T08:09:27.106Z,22.79
2018-07-06T08:10:27.170Z,22.93
2018-07-06T08:11:27.234Z,23.03
2018-07-06T08:12:27.297Z,23.11
2018-07-06T08:13:27.361Z,23.09
2018-07-06T08:14:27.461Z,23.19
2018-07-06T08:15:27.492Z,23.11
2018-07-06T08:16:27.553Z,23.11
2018-07-06T08:17:27.626Z,23.23
2018-07-06T08:18:27.739Z,23.22
2018-07-06T08:19:27.746Z,23.29
2018-07-06T08:20:27.810Z,23.29
2018-07-06T08:21:27.879Z,23.42
2018-07-06T08:22:27.940Z,23.41
2018-07-06T08:23:28.003Z,23.31
2018-07-06T08:24:28.066Z,23.19
2018-07-06T08:25:28.177Z,23.18
2018-07-06T08:26:28.197Z,23.31
2018-07-06T08:27:28.260Z,23.38
2018-07-06T08:28:28.324Z,23.37
2018-07-06T08:29:28.388Z,23.45
2018-07-06T08:30:28.924Z,23.74
2018-07-06T08:31:28.549Z,23.75
2018-07-06T08:32:28.581Z,23.72
2018-07-06T08:33:28.646Z,23.52
2018-07-06T08:34:28.711Z,23.67
2018-07-06T08:35:28.819Z,23.71
2018-07-06T08:36:28.886Z,23.84
2018-07-06T08:37:28.903Z,23.87
2018-07-06T08:38:28.968Z,23.97
2018-07-06T08:39:29.070Z,23.86
2018-07-06T08:40:29.097Z,23.71
2018-07-06T08:41:29.162Z,23.71
2018-07-06T08:42:29.226Z,23.74
2018-07-06T08:43:29.292Z,23.68
2018-07-06T08:44:29.401Z,23.59
2018-07-06T08:45:29.423Z,23.68
2018-07-06T08:46:29.485Z,23.64
2018-07-06T08:47:29.550Z,23.68
2018-07-06T08:48:29.615Z,23.92
2018-07-06T08:49:29.678Z,24.04
2018-07-06T08:50:29.830Z,23.99
2018-07-06T08:51:29.810Z,23.86
2018-07-06T08:52:29.878Z,23.90
2018-07-06T08:53:29.941Z,23.99
2018-07-06T08:54:30.005Z,23.92
2018-07-06T08:55:30.069Z,24.11
2018-07-06T08:56:30.133Z,24.08
2018-07-06T08:57:30.197Z,24.04
2018-07-06T08:58:30.419Z,24.06
2018-07-06T08:59:30.334Z,23.94
2018-07-06T09:00:30.392Z,23.96
2018-07-06T09:01:30.458Z,23.99
2018-07-06T09:02:30.522Z,24.09
2018-07-06T09:03:30.588Z,24.12
2018-07-06T09:04:30.784Z,23.97
2018-07-06T09:05:30.716Z,24.14
2018-07-06T09:06:30.783Z,24.33
2018-07-06T09:07:30.881Z,24.44
2018-07-06T09:08:30.911Z,24.24
2018-07-06T09:09:30.981Z,24.30
2018-07-06T09:10:31.042Z,24.52
2018-07-06T09:11:31.108Z,24.49
2018-07-06T09:12:31.170Z,24.68
2018-07-06T09:13:31.238Z,24.89
2018-07-06T09:14:31.301Z,24.99
2018-07-06T09:15:31.369Z,25.05
2018-07-06T09:16:31.432Z,24.97
2018-07-06T09:17:31.495Z,24.92
2018-07-06T09:18:31.562Z,25.11
2018-07-06T09:19:31.660Z,25.30
2018-07-06T09:20:31.691Z,25.16
2018-07-06T09:21:31.757Z,25.30
2018-07-06T09:22:31.822Z,25.41
2018-07-06T09:23:31.888Z,25.54
2018-07-06T09:24:31.953Z,25.46
2018-07-06T09:25:32.626Z,25.64
2018-07-06T09:26:32.086Z,25.46
2018-07-06T09:27:32.149Z,25.66
2018-07-06T09:28:32.214Z,25.76
2018-07-06T09:29:32.280Z,25.78
2018-07-06T09:30:32.347Z,25.69
2018-07-06T09:31:32.411Z,25.72
2018-07-06T09:32:32.728Z,25.69
2018-07-06T09:33:32.543Z,25.61
2018-07-06T09:34:32.610Z,25.66
2018-07-06T09:35:32.676Z,25.64
2018-07-06T09:36:32.741Z,25.69
2018-07-06T09:37:32.807Z,25.61
2018-07-06T09:38:32.874Z,25.63
2018-07-06T09:39:32.939Z,25.59
2018-07-06T09:40:33.012Z,25.63
2018-07-06T09:41:33.071Z,25.81
2018-07-06T09:42:33.147Z,25.75
2018-07-06T09:43:33.209Z,25.85
2018-07-06T09:44:33.520Z,25.90
2018-07-06T09:45:33.497Z,25.97
2018-07-06T09:46:33.496Z,26.01
2018-07-06T09:47:33.498Z,25.97
2018-07-06T09:48:33.540Z,25.98
2018-07-06T09:49:33.601Z,26.11
2018-07-06T09:50:33.667Z,26.20
2018-07-06T09:51:33.735Z,26.12
2018-07-06T09:52:33.800Z,26.12
2018-07-06T09:53:33.868Z,26.04
2018-07-06T09:54:33.935Z,26.13
2018-07-06T09:55:34.004Z,26.06
2018-07-06T09:56:34.067Z,26.01
2018-07-06T09:57:34.134Z,26.20
2018-07-06T09:58:34.203Z,26.41
2018-07-06T09:59:34.268Z,26.66
2018-07-06T10:00:34.334Z,26.54
2018-07-06T10:01:34.401Z,26.41
2018-07-06T10:02:34.471Z,26.71
2018-07-06T10:03:34.536Z,26.61
2018-07-06T10:04:34.604Z,26.64
2018-07-06T10:05:34.715Z,26.61
2018-07-06T10:06:34.740Z,26.81
2018-07-06T10:07:34.806Z,26.71
2018-07-06T10:08:34.874Z,26.73
2018-07-06T10:09:34.941Z,26.66
2018-07-06T10:10:35.010Z,26.87
2018-07-06T10:11:35.079Z,26.87
2018-07-06T10:12:35.212Z,26.87
2018-07-06T10:13:35.215Z,27.15
2018-07-06T10:14:35.284Z,26.97
2018-07-06T10:15:35.353Z,26.90
2018-07-06T10:16:35.421Z,26.96
2018-07-06T10:17:35.490Z,26.94
2018-07-06T10:18:35.565Z,26.81
2018-07-06T10:19:35.695Z,26.78
2018-07-06T10:20:35.700Z,26.24
2018-07-06T10:21:35.770Z,26.12
2018-07-06T10:22:35.837Z,25.86
2018-07-06T10:23:35.906Z,26.04
2018-07-06T10:24:35.973Z,25.93
2018-07-06T10:25:36.042Z,25.93
2018-07-06T10:26:36.111Z,25.96
2018-07-06T10:27:36.188Z,26.60
2018-07-06T10:28:36.512Z,27.24
2018-07-06T10:29:36.315Z,27.58
2018-07-06T10:30:36.384Z,28.15
2018-07-06T10:31:36.454Z,28.36
2018-07-06T10:32:36.522Z,28.91
2018-07-06T10:33:36.701Z,29.15
2018-07-06T10:34:36.663Z,29.73
2018-07-06T10:35:36.731Z,29.76
2018-07-06T10:36:36.801Z,29.73
2018-07-06T10:37:36.876Z,30.04
2018-07-06T10:38:36.943Z,29.55
2018-07-06T10:39:37.254Z,28.58
2018-07-06T10:40:37.091Z,28.69
2018-07-06T10:41:37.157Z,28.60
2018-07-06T10:42:37.231Z,28.27
2018-07-06T10:43:37.302Z,28.94
2018-07-06T10:44:37.373Z,29.27
2018-07-06T10:45:37.445Z,29.54
2018-07-06T10:46:37.618Z,29.95
2018-07-06T10:47:37.592Z,29.27
2018-07-06T10:48:37.693Z,28.61
2018-07-06T10:49:37.987Z,27.93
2018-07-06T10:50:37.810Z,27.99
2018-07-06T10:51:37.883Z,27.71
2018-07-06T10:52:37.955Z,27.66
2018-07-06T10:53:38.028Z,27.87
2018-07-06T10:54:38.102Z,28.51
2018-07-06T10:55:38.175Z,28.79
2018-07-06T10:56:38.248Z,29.12
2018-07-06T10:57:38.321Z,28.92
2018-07-06T10:58:38.394Z,28.72
2018-07-06T10:59:38.490Z,28.27
2018-07-06T11:00:38.542Z,28.72
2018-07-06T11:01:38.615Z,29.45
2018-07-06T11:02:38.688Z,29.81
2018-07-06T11:03:38.762Z,29.92
2018-07-06T11:04:38.837Z,30.23
2018-07-06T11:05:38.912Z,29.94
2018-07-06T11:06:38.984Z,30.60
2018-07-06T11:07:39.056Z,31.07
2018-07-06T11:08:39.130Z,30.60
2018-07-06T11:09:39.204Z,30.06
2018-07-06T11:10:39.279Z,29.45
2018-07-06T11:11:39.491Z,29.92
2018-07-06T11:12:39.426Z,30.45
2018-07-06T11:13:39.503Z,31.20
2018-07-06T11:14:39.576Z,31.32
2018-07-06T11:15:39.652Z,31.65
2018-07-06T11:16:39.725Z,31.42
2018-07-06T11:17:39.804Z,31.42
2018-07-06T11:18:39.877Z,30.37
2018-07-06T11:19:39.954Z,30.03
2018-07-06T11:20:40.045Z,30.06
2018-07-06T11:21:40.102Z,30.08
2018-07-06T11:22:40.177Z,30.59
2018-07-06T11:23:40.253Z,30.06
2018-07-06T11:24:40.328Z,30.32
2018-07-06T11:25:40.403Z,30.44
2018-07-06T11:26:40.479Z,30.07
2018-07-06T11:27:40.554Z,30.03
2018-07-06T11:28:40.630Z,29.92
2018-07-06T11:29:40.705Z,29.73
2018-07-06T11:30:40.784Z,29.30
2018-07-06T11:31:40.857Z,29.07
2018-07-06T11:32:40.931Z,29.70
2018-07-06T11:33:41.008Z,30.13
2018-07-06T11:34:41.082Z,30.76
2018-07-06T11:35:41.158Z,30.67
2018-07-06T11:36:41.235Z,29.79
2018-07-06T11:37:41.309Z,30.11
2018-07-06T11:38:41.384Z,30.00
2018-07-06T11:39:41.490Z,30.08
2018-07-06T11:40:41.534Z,29.66
2018-07-06T11:41:41.609Z,29.35
2018-07-06T11:42:41.693Z,29.07
2018-07-06T11:43:41.761Z,29.74
2018-07-06T11:44:41.842Z,30.06
2018-07-06T11:45:41.911Z,30.19
2018-07-06T11:46:41.983Z,30.16
2018-07-06T11:47:42.059Z,28.92
2018-07-06T11:48:42.134Z,29.62
2018-07-06T11:49:42.207Z,30.07
2018-07-06T11:50:42.292Z,30.28
2018-07-06T11:51:42.358Z,28.76
2018-07-06T11:52:42.431Z,29.15
2018-07-06T11:53:42.506Z,29.78
2018-07-06T11:54:42.581Z,29.73
2018-07-06T11:55:42.656Z,29.92
2018-07-06T11:56:42.730Z,30.19
2018-07-06T11:57:42.803Z,30.36
2018-07-06T11:58:42.878Z,30.75
2018-07-06T11:59:42.953Z,31.32
2018-07-06T12:00:43.028Z,31.69
2018-07-06T12:01:43.131Z,31.42
2018-07-06T12:02:43.178Z,31.85
2018-07-06T12:03:43.252Z,31.42
2018-07-06T12:04:43.326Z,30.54
2018-07-06T12:05:43.402Z,31.15
2018-07-06T12:06:43.477Z,31.72
2018-07-06T12:07:43.552Z,32.05
2018-07-06T12:08:43.629Z,32.29
2018-07-06T12:09:43.702Z,31.95
2018-07-06T12:10:43.778Z,31.41
2018-07-06T12:11:43.853Z,30.88
2018-07-06T12:12:43.929Z,30.86
2018-07-06T12:13:44.008Z,31.32
2018-07-06T12:14:44.081Z,31.49
2018-07-06T12:15:44.157Z,32.06
2018-07-06T12:16:44.231Z,31.85
2018-07-06T12:17:44.310Z,31.87
2018-07-06T12:18:44.394Z,32.14
2018-07-06T12:19:44.463Z,31.82
2018-07-06T12:20:44.536Z,32.31
2018-07-06T12:21:44.611Z,32.65
2018-07-06T12:22:44.688Z,31.60
2018-07-06T12:23:44.763Z,31.99
2018-07-06T12:24:44.839Z,32.16
2018-07-06T12:25:44.915Z,32.56
2018-07-06T12:26:44.992Z,31.74
2018-07-06T12:27:45.070Z,32.25
2018-07-06T12:28:45.143Z,32.62
2018-07-06T12:29:45.221Z,32.95
2018-07-06T12:30:45.299Z,33.15
2018-07-06T12:31:45.372Z,32.59
2018-07-06T12:32:45.448Z,32.28
2018-07-06T12:33:45.527Z,30.61
2018-07-06T12:34:45.602Z,31.05
2018-07-06T12:35:45.679Z,31.60
2018-07-06T12:36:45.753Z,32.19
2018-07-06T12:37:45.829Z,32.50
2018-07-06T12:38:45.905Z,31.85
2018-07-06T12:39:45.983Z,31.34
2018-07-06T12:40:46.058Z,31.10
2018-07-06T12:41:46.134Z,30.81
2018-07-06T12:42:46.211Z,31.03
2018-07-06T12:43:46.286Z,31.00
2018-07-06T12:44:46.362Z,31.45
2018-07-06T12:45:46.439Z,31.45
2018-07-06T12:46:46.514Z,31.87
2018-07-06T12:47:46.594Z,31.99
2018-07-06T12:48:46.687Z,32.16
2018-07-06T12:49:46.740Z,32.73
2018-07-06T12:50:46.817Z,32.54
2018-07-06T12:51:46.892Z,32.71
2018-07-06T12:52:46.966Z,32.63
2018-07-06T12:53:47.041Z,32.69
2018-07-06T12:54:47.119Z,32.78